»·PEaware :: QXE2100 KYKM-KSEA

QXE2100 :: KYKM-KSEA

FLIGHT INFORMATION

Flight Status: Arrived
Operator:
Horizon Air
More flights by this operator :: More flights under this callsign
Pilot: Erik S. (14620)
Aircraft: DEHAVILLAND DASH 8 400
(DH8D)
More flights by this aircraft type
Origin: KYKM Yakima Air Term/Mcallister
United States
Destination: KSEA Seattle-Tacoma Intl
United States
More flights between these airports :: More routes between these airports
Route: +NAHCES4 YKM V4 CHINS CHINS3
File this flight plan on PilotEdge
Remarks:
Altitude:
(Current/Filed)
16,000ft
Speed:
(Current/Filed)
318kts
Departed: 28-May-19 11:58 AM
Arrived: 28-May-19 12:28 PM
Distance/Time
Traveled:
89nm/0:29
Distance/Time
To Go:
Arrived

Flight Plot

Page will automatically refresh every two minutes.

Flight plan parsing failed; only flown route is shown


Map Options




Map Legend


Flown Route
Filed Route
Departure Airport
Arrival Airport
Navaid (VOR, NDB)
Fix

Horizontal Profiles

Position Reports

Time Latitude Longitude Heading Altitude Ground
Speed
28-May-19 11:36 46.569808 -120.539188 0 1062ft 0kts
28-May-19 11:37 46.569808 -120.539188 0 1062ft 0kts
28-May-19 11:38 46.569808 -120.539188 0 1062ft 0kts
28-May-19 11:39 46.569808 -120.539188 0 1062ft 0kts
28-May-19 11:40 46.569808 -120.539188 0 1062ft 0kts
28-May-19 11:41 46.569809 -120.539188 0 1062ft 0kts
28-May-19 11:42 46.569809 -120.539188 0 1062ft 0kts
28-May-19 11:43 46.569809 -120.539188 0 1062ft 0kts
28-May-19 11:44 46.569809 -120.539188 0 1062ft 0kts
28-May-19 11:45 46.569809 -120.539188 0 1062ft 0kts
28-May-19 11:46 46.569809 -120.539188 0 1062ft 0kts
28-May-19 11:47 46.569809 -120.539188 0 1062ft 0kts
28-May-19 11:48 46.569809 -120.539188 0 1062ft 0kts
28-May-19 11:49 46.569809 -120.539188 0 1062ft 0kts
28-May-19 11:50 46.569809 -120.539188 0 1062ft 0kts
28-May-19 11:51 46.569995 -120.539144 10 1062ft 0kts
28-May-19 11:52 46.569851 -120.538924 227 1062ft 0kts
28-May-19 11:53 46.569851 -120.538924 227 1062ft 0kts
28-May-19 11:55 46.568628 -120.539330 108 1062ft 17kts
28-May-19 11:56 46.566339 -120.531646 178 1062ft 0kts
28-May-19 11:57 46.565682 -120.532341 284 1062ft 17kts
28-May-19 11:58 46.577030 -120.577212 291 2050ft 154kts
28-May-19 11:59 46.615435 -120.608468 335 4379ft 183kts
28-May-19 12:00 46.664125 -120.638145 335 6946ft 189kts
28-May-19 12:01 46.713168 -120.672465 316 9436ft 198kts
28-May-19 12:02 46.740352 -120.757332 281 10695ft 249kts
28-May-19 12:03 46.765807 -120.852066 301 12674ft 252kts
28-May-19 12:04 46.804797 -120.939086 307 14254ft 258kts
28-May-19 12:05 46.846641 -121.026719 306 15660ft 264kts
28-May-19 12:06 46.893025 -121.122812 309 14922ft 328kts
28-May-19 12:07 46.941362 -121.228393 304 16056ft 316kts
28-May-19 12:08 46.992068 -121.338398 305 16116ft 332kts
28-May-19 12:09 47.044647 -121.451866 305 16151ft 339kts
28-May-19 12:10 47.097148 -121.565202 305 16150ft 335kts
28-May-19 12:11 47.148961 -121.678169 306 16054ft 328kts
28-May-19 12:12 47.194766 -121.778430 305 14633ft 272kts
28-May-19 12:12 47.228924 -121.852900 305 13402ft 268kts
28-May-19 12:14 47.276226 -121.956197 305 11700ft 268kts
28-May-19 12:15 47.316712 -122.045928 305 10319ft 259kts
28-May-19 12:15 47.347776 -122.114953 305 10195ft 236kts
28-May-19 12:16 47.407277 -122.143663 359 9452ft 251kts
28-May-19 12:18 47.486932 -122.143236 359 8175ft 243kts
28-May-19 12:18 47.541843 -122.142640 359 7219ft 236kts
28-May-19 12:19 47.604148 -122.141449 1 6013ft 222kts
28-May-19 12:21 47.670507 -122.152717 311 4626ft 208kts
28-May-19 12:21 47.682230 -122.223363 276 4019ft 215kts
28-May-19 12:22 47.647769 -122.283712 204 3348ft 228kts
28-May-19 12:23 47.594910 -122.305584 182 2920ft 172kts
28-May-19 12:24 47.545369 -122.307012 180 2026ft 173kts
28-May-19 12:25 47.507484 -122.306941 182 1275ft 124kts
28-May-19 12:26 47.472876 -122.307743 181 648ft 129kts
28-May-19 12:27 47.446570 -122.307916 172 440ft 22kts
28-May-19 12:28 47.444782 -122.306144 135 440ft 13kts
28-May-19 12:29 47.444598 -122.304229 91 440ft 0kts
28-May-19 12:30 47.444598 -122.304229 91 440ft 0kts
28-May-19 12:31 47.444598 -122.304229 91 440ft 0kts
28-May-19 12:32 47.444598 -122.304229 91 440ft 0kts
28-May-19 12:33 47.444598 -122.304229 91 440ft 0kts
28-May-19 12:34 47.444598 -122.304228 91 440ft 0kts
28-May-19 12:35 47.444598 -122.304228 91 440ft 0kts
28-May-19 12:36 47.444598 -122.304228 91 440ft 0kts
28-May-19 12:37 47.444598 -122.304228 91 440ft 0kts
28-May-19 12:38 47.444598 -122.304228 91 440ft 0kts
28-May-19 12:39 47.444598 -122.304228 91 440ft 0kts
28-May-19 12:40 47.444598 -122.304228 91 440ft 0kts
28-May-19 12:41 47.444598 -122.304228 91 440ft 0kts

Navigation Log

Ident Type
Flight plan parsing failed, navigation log unavailable